Time,TemperatureF,DewpointF,PressureIn,WindDirection,WindDirectionDegrees,WindSpeedMPH,WindSpeedGustMPH,Humidity,HourlyPrecipIn,Conditions,Clouds,dailyrainin,SoftwareType,DateUTC
2013-01-13 00:00:00,53.4,52.8,30.08,ESE,122,0.0,0.0,98,0.00,,,0.00,VWS V14.01,2013-01-13 05:00:00,
2013-01-13 00:05:00,53.2,52.4,30.08,ESE,122,0.0,0.0,97,0.00,,,0.00,VWS V14.01,2013-01-13 05:05:00,
2013-01-13 00:10:00,53.2,52.7,30.07,ESE,122,0.0,0.0,98,0.00,,,0.00,VWS V14.01,2013-01-13 05:10:00,
2013-01-13 00:15:00,53.3,52.8,30.07,ESE,122,0.0,0.0,98,0.00,,,0.00,VWS V14.01,2013-01-13 05:15:00,
2013-01-13 00:20:00,53.4,52.8,30.07,ESE,122,0.0,0.0,98,0.00,,,0.00,VWS V14.01,2013-01-13 05:20:00,
2013-01-13 00:25:00,53.4,52.8,30.07,ESE,122,0.0,0.0,98,0.00,,,0.00,VWS V14.01,2013-01-13 05:25:00,
2013-01-13 00:30:00,53.5,53.0,30.06,ESE,122,0.0,0.0,98,0.00,,,0.00,VWS V14.01,2013-01-13 05:30:00,
2013-01-13 00:35:00,53.4,52.8,30.06,ESE,122,0.0,0.0,98,0.00,,,0.00,VWS V14.01,2013-01-13 05:35:00,
2013-01-13 00:40:00,52.7,51.9,30.07,ESE,122,0.0,0.0,97,0.00,,,0.00,VWS V14.01,2013-01-13 05:40:00,
2013-01-13 00:45:00,52.2,51.4,30.07,ESE,122,0.0,0.0,97,0.00,,,0.00,VWS V14.01,2013-01-13 05:45:00,
2013-01-13 00:50:00,52.0,51.2,30.07,ESE,122,0.0,0.0,97,0.00,,,0.00,VWS V14.01,2013-01-13 05:50:00,
2013-01-13 00:55:00,51.7,50.9,30.07,ESE,122,0.0,0.0,97,0.00,,,0.00,VWS V14.01,2013-01-13 05:55:00,
2013-01-13 01:00:00,51.4,50.6,30.07,ESE,122,0.0,0.0,97,0.00,,,0.00,VWS V14.01,2013-01-13 06:00:00,
2013-01-13 01:05:00,51.4,50.6,30.07,ESE,122,0.0,0.0,97,0.00,,,0.00,VWS V14.01,2013-01-13 06:05:00,
2013-01-13 01:10:00,51.7,51.2,30.07,ESE,122,0.0,0.0,98,0.00,,,0.00,VWS V14.01,2013-01-13 06:10:00,
2013-01-13 01:15:00,52.1,51.5,30.07,ESE,122,0.0,0.0,98,0.00,,,0.00,VWS V14.01,2013-01-13 06:15:00,
2013-01-13 01:20:00,52.2,51.7,30.07,ESE,122,0.0,0.0,98,0.00,,,0.00,VWS V14.01,2013-01-13 06:20:00,
2013-01-13 01:25:00,52.3,51.8,30.07,ESE,122,0.0,0.0,98,0.00,,,0.00,VWS V14.01,2013-01-13 06:25:00,
2013-01-13 01:30:00,52.4,51.8,30.07,ESE,122,0.0,0.0,98,0.00,,,0.00,VWS V14.01,2013-01-13 06:30:00,
2013-01-13 01:35:00,52.5,52.0,30.07,ESE,122,0.0,0.0,98,0.00,,,0.00,VWS V14.01,2013-01-13 06:35:00,
2013-01-13 01:40:00,51.5,51.0,30.07,ESE,122,0.0,0.0,98,0.00,,,0.00,VWS V14.01,2013-01-13 06:40:00,
2013-01-13 01:45:00,51.4,50.9,30.07,ESE,122,0.0,0.0,98,0.00,,,0.00,VWS V14.01,2013-01-13 06:45:00,
2013-01-13 01:50:00,51.7,51.2,30.07,ESE,122,0.0,0.0,98,0.00,,,0.00,VWS V14.01,2013-01-13 06:50:00,
2013-01-13 01:55:00,52.0,51.5,30.07,ESE,122,0.0,0.0,98,0.00,,,0.00,VWS V14.01,2013-01-13 06:55:00,
2013-01-13 02:00:00,51.8,51.3,30.07,ESE,122,0.0,0.0,98,0.00,,,0.00,VWS V14.01,2013-01-13 07:00:00,
2013-01-13 02:05:00,51.8,51.3,30.07,ESE,122,0.0,0.0,98,0.00,,,0.00,VWS V14.01,2013-01-13 07:05:00,
2013-01-13 02:10:00,52.2,51.7,30.07,ESE,122,0.0,0.0,98,0.00,,,0.00,VWS V14.01,2013-01-13 07:10:00,
2013-01-13 02:15:00,52.6,52.3,30.07,ESE,122,0.0,0.0,99,0.00,,,0.00,VWS V14.01,2013-01-13 07:15:00,
2013-01-13 02:20:00,52.6,52.3,30.06,ESE,122,0.0,0.0,99,0.00,,,0.00,VWS V14.01,2013-01-13 07:20:00,
2013-01-13 02:25:00,52.2,51.7,30.06,ESE,122,0.0,0.0,98,0.00,,,0.00,VWS V14.01,2013-01-13 07:25:00,
2013-01-13 02:30:00,51.8,51.3,30.07,ESE,122,0.0,0.0,98,0.00,,,0.00,VWS V14.01,2013-01-13 07:30:00,
2013-01-13 02:35:00,52.0,51.5,30.07,ESE,122,0.0,0.0,98,0.00,,,0.00,VWS V14.01,2013-01-13 07:35:00,
2013-01-13 02:40:00,52.3,51.8,30.07,ESE,122,0.0,0.0,98,0.00,,,0.00,VWS V14.01,2013-01-13 07:40:00,
2013-01-13 02:45:00,52.6,52.3,30.07,ESE,122,0.0,0.0,99,0.00,,,0.00,VWS V14.01,2013-01-13 07:45:00,
2013-01-13 02:50:00,52.7,52.4,30.06,ESE,122,0.0,1.0,99,0.00,,,0.00,VWS V14.01,2013-01-13 07:50:00,
2013-01-13 02:55:00,52.6,52.3,30.06,ESE,122,0.0,1.0,99,0.00,,,0.00,VWS V14.01,2013-01-13 07:55:00,
2013-01-13 03:00:00,52.5,52.2,30.07,ESE,122,0.0,0.0,99,0.00,,,0.00,VWS V14.01,2013-01-13 08:00:00,
2013-01-13 03:05:00,52.4,51.8,30.06,ESE,122,0.0,0.0,98,0.00,,,0.00,VWS V14.01,2013-01-13 08:05:00,
2013-01-13 03:10:00,52.6,52.3,30.06,ESE,122,0.0,0.0,99,0.00,,,0.00,VWS V14.01,2013-01-13 08:10:00,
2013-01-13 03:15:00,52.9,52.6,30.06,ESE,122,0.0,0.0,99,0.00,,,0.00,VWS V14.01,2013-01-13 08:15:00,
2013-01-13 03:20:00,53.2,52.9,30.06,ESE,122,0.0,0.0,99,0.00,,,0.00,VWS V14.01,2013-01-13 08:20:00,
2013-01-13 03:25:00,53.3,53.0,30.06,ESE,122,0.0,0.0,99,0.00,,,0.00,VWS V14.01,2013-01-13 08:25:00,
2013-01-13 03:30:00,53.4,53.1,30.05,ESE,122,0.0,0.0,99,0.00,,,0.00,VWS V14.01,2013-01-13 08:30:00,
2013-01-13 03:35:00,53.3,53.0,30.05,ESE,122,0.0,0.0,99,0.00,,,0.00,VWS V14.01,2013-01-13 08:35:00,
2013-01-13 03:40:00,53.3,53.0,30.05,ESE,122,0.0,0.0,99,0.00,,,0.00,VWS V14.01,2013-01-13 08:40:00,
2013-01-13 03:45:00,53.1,52.8,30.05,ESE,122,0.0,0.0,99,0.00,,,0.00,VWS V14.01,2013-01-13 08:45:00,
2013-01-13 03:50:00,52.9,52.6,30.05,ESE,122,0.0,0.0,99,0.00,,,0.00,VWS V14.01,2013-01-13 08:50:00,
2013-01-13 03:55:00,53.0,52.7,30.05,ESE,122,0.0,0.0,99,0.00,,,0.00,VWS V14.01,2013-01-13 08:55:00,
2013-01-13 04:00:00,53.1,52.8,30.04,ESE,122,0.0,0.0,99,0.00,,,0.00,VWS V14.01,2013-01-13 09:00:00,
2013-01-13 04:05:00,53.5,53.2,30.04,ESE,122,0.0,0.0,99,0.00,,,0.00,VWS V14.01,2013-01-13 09:05:00,
2013-01-13 04:10:00,53.8,53.5,30.04,ESE,122,0.0,0.0,99,0.00,,,0.00,VWS V14.01,2013-01-13 09:10:00,
2013-01-13 04:15:00,53.9,53.6,30.04,ESE,122,0.0,0.0,99,0.00,,,0.00,VWS V14.01,2013-01-13 09:15:00,
2013-01-13 04:20:00,53.7,53.4,30.04,ESE,122,0.0,0.0,99,0.00,,,0.00,VWS V14.01,2013-01-13 09:20:00,
2013-01-13 04:25:00,53.9,53.6,30.04,ESE,122,0.0,0.0,99,0.00,,,0.00,VWS V14.01,2013-01-13 09:25:00,
2013-01-13 04:30:00,53.9,53.6,30.04,ESE,122,0.0,0.0,99,0.00,,,0.00,VWS V14.01,2013-01-13 09:30:00,
2013-01-13 04:35:00,53.7,53.4,30.04,ESE,122,0.0,0.0,99,0.00,,,0.00,VWS V14.01,2013-01-13 09:35:00,
2013-01-13 04:40:00,53.5,53.2,30.04,ESE,122,0.0,0.0,99,0.00,,,0.00,VWS V14.01,2013-01-13 09:40:00,
2013-01-13 04:45:00,53.6,53.3,30.04,ESE,122,0.0,0.0,99,0.00,,,0.00,VWS V14.01,2013-01-13 09:45:00,
2013-01-13 04:50:00,53.5,53.2,30.04,ESE,122,0.0,0.0,99,0.00,,,0.00,VWS V14.01,2013-01-13 09:50:00,
2013-01-13 04:55:00,53.8,53.5,30.03,ESE,121,1.0,2.0,99,0.00,,,0.00,VWS V14.01,2013-01-13 09:55:00,
2013-01-13 05:00:00,54.1,53.8,30.03,ESE,117,0.0,0.0,99,0.00,,,0.00,VWS V14.01,2013-01-13 10:00:00,
2013-01-13 05:05:00,54.4,54.1,30.03,ESE,117,0.0,0.0,99,0.00,,,0.00,VWS V14.01,2013-01-13 10:05:00,
2013-01-13 05:10:00,54.3,54.0,30.03,ESE,117,0.0,0.0,99,0.00,,,0.00,VWS V14.01,2013-01-13 10:10:00,
2013-01-13 05:15:00,54.1,53.8,30.03,ESE,117,0.0,0.0,99,0.00,,,0.00,VWS V14.01,2013-01-13 10:15:00,
2013-01-13 05:20:00,54.0,53.7,30.03,ESE,117,0.0,0.0,99,0.00,,,0.00,VWS V14.01,2013-01-13 10:20:00,
2013-01-13 05:25:00,53.5,53.2,30.03,ESE,117,0.0,0.0,99,0.00,,,0.00,VWS V14.01,2013-01-13 10:25:00,
2013-01-13 05:30:00,53.4,53.1,30.03,ESE,117,0.0,0.0,99,0.00,,,0.00,VWS V14.01,2013-01-13 10:30:00,
2013-01-13 05:35:00,53.3,53.0,30.03,ESE,117,0.0,0.0,99,0.00,,,0.00,VWS V14.01,2013-01-13 10:35:00,
2013-01-13 05:40:00,53.4,53.1,30.03,ESE,117,0.0,0.0,99,0.00,,,0.00,VWS V14.01,2013-01-13 10:40:00,
2013-01-13 05:45:00,53.5,53.2,30.03,ESE,117,0.0,0.0,99,0.00,,,0.00,VWS V14.01,2013-01-13 10:45:00,
2013-01-13 05:50:00,53.4,53.1,30.04,ESE,117,0.0,0.0,99,0.00,,,0.00,VWS V14.01,2013-01-13 10:50:00,
2013-01-13 05:55:00,53.2,52.9,30.04,ESE,117,0.0,0.0,99,0.00,,,0.00,VWS V14.01,2013-01-13 10:55:00,
2013-01-13 06:00:00,53.2,52.9,30.04,ESE,117,0.0,0.0,99,0.00,,,0.00,VWS V14.01,2013-01-13 11:00:00,
2013-01-13 06:05:00,53.3,53.0,30.04,ESE,117,0.0,0.0,99,0.00,,,0.00,VWS V14.01,2013-01-13 11:05:00,
2013-01-13 06:10:00,53.3,53.0,30.04,ESE,117,0.0,0.0,99,0.00,,,0.00,VWS V14.01,2013-01-13 11:10:00,
2013-01-13 06:15:00,53.2,52.9,30.04,ESE,117,0.0,0.0,99,0.00,,,0.00,VWS V14.01,2013-01-13 11:15:00,
2013-01-13 06:20:00,53.4,53.1,30.04,ESE,117,0.0,0.0,99,0.00,,,0.00,VWS V14.01,2013-01-13 11:20:00,
2013-01-13 06:25:00,53.6,53.3,30.05,ESE,117,0.0,0.0,99,0.00,,,0.00,VWS V14.01,2013-01-13 11:25:00,
2013-01-13 06:30:00,53.6,53.3,30.04,ESE,117,0.0,0.0,99,0.00,,,0.00,VWS V14.01,2013-01-13 11:30:00,
2013-01-13 06:35:00,53.7,53.4,30.05,ESE,117,0.0,1.0,99,0.00,,,0.00,VWS V14.01,2013-01-13 11:35:00,
2013-01-13 06:40:00,53.6,53.3,30.05,ESE,117,0.0,1.0,99,0.00,,,0.00,VWS V14.01,2013-01-13 11:40:00,
2013-01-13 06:45:00,53.5,53.2,30.05,South,180,1.0,3.0,99,0.00,,,0.00,VWS V14.01,2013-01-13 11:45:00,
2013-01-13 06:50:00,53.8,53.5,30.05,South,178,0.0,3.0,99,0.00,,,0.00,VWS V14.01,2013-01-13 11:50:00,
2013-01-13 06:55:00,54.1,53.8,30.05,South,180,0.0,3.0,99,0.00,,,0.00,VWS V14.01,2013-01-13 11:55:00,
2013-01-13 07:00:00,54.3,54.0,30.05,South,180,0.0,0.0,99,0.00,,,0.00,VWS V14.01,2013-01-13 12:00:00,
2013-01-13 07:05:00,54.3,54.0,30.05,South,171,1.0,3.0,99,0.00,,,0.00,VWS V14.01,2013-01-13 12:05:00,
2013-01-13 07:10:00,54.5,54.2,30.05,South,171,0.0,3.0,99,0.00,,,0.00,VWS V14.01,2013-01-13 12:10:00,
2013-01-13 07:15:00,54.8,54.5,30.05,South,171,1.0,3.0,99,0.00,,,0.00,VWS V14.01,2013-01-13 12:15:00,
2013-01-13 07:20:00,55.0,54.7,30.05,South,171,0.0,3.0,99,0.00,,,0.00,VWS V14.01,2013-01-13 12:20:00,
2013-01-13 07:25:00,55.1,54.8,30.05,South,171,0.0,3.0,99,0.00,,,0.00,VWS V14.01,2013-01-13 12:25:00,
2013-01-13 07:30:00,55.2,55.2,30.06,South,171,0.0,0.0,100,0.00,,,0.00,VWS V14.01,2013-01-13 12:30:00,
2013-01-13 07:35:00,55.4,55.4,30.06,South,171,0.0,0.0,100,0.00,,,0.00,VWS V14.01,2013-01-13 12:35:00,
2013-01-13 07:40:00,55.4,55.4,30.06,South,171,0.0,0.0,100,0.00,,,0.00,VWS V14.01,2013-01-13 12:40:00,
2013-01-13 07:45:00,55.4,55.1,30.06,South,171,0.0,0.0,99,0.00,,,0.00,VWS V14.01,2013-01-13 12:45:00,
2013-01-13 07:50:00,55.4,55.4,30.06,South,171,0.0,1.0,100,0.00,,,0.00,VWS V14.01,2013-01-13 12:50:00,
2013-01-13 07:55:00,55.4,55.4,30.06,South,171,0.0,1.0,100,0.00,,,0.00,VWS V14.01,2013-01-13 12:55:00,
2013-01-13 08:00:00,55.4,55.4,30.06,South,171,0.0,0.0,100,0.00,,,0.00,VWS V14.01,2013-01-13 13:00:00,
2013-01-13 08:05:00,55.4,55.4,30.06,South,171,0.0,0.0,100,0.00,,,0.00,VWS V14.01,2013-01-13 13:05:00,
2013-01-13 08:10:00,55.5,55.5,30.06,SE,127,1.0,1.0,100,0.00,,,0.00,VWS V14.01,2013-01-13 13:10:00,
2013-01-13 08:15:00,55.5,55.5,30.06,SE,127,0.0,1.0,100,0.00,,,0.00,VWS V14.01,2013-01-13 13:15:00,
2013-01-13 08:20:00,55.7,55.7,30.06,SE,127,2.0,2.0,100,0.00,,,0.00,VWS V14.01,2013-01-13 13:20:00,
2013-01-13 08:25:00,55.8,55.5,30.06,SE,127,0.0,2.0,99,0.00,,,0.00,VWS V14.01,2013-01-13 13:25:00,
2013-01-13 08:30:00,55.8,55.5,30.06,SE,128,0.0,1.0,99,0.00,,,0.00,VWS V14.01,2013-01-13 13:30:00,
2013-01-13 08:35:00,55.8,55.5,30.06,SE,128,0.0,2.0,99,0.00,,,0.00,VWS V14.01,2013-01-13 13:35:00,
2013-01-13 08:40:00,55.5,55.2,30.07,SE,128,0.0,2.0,99,0.00,,,0.00,VWS V14.01,2013-01-13 13:40:00,
2013-01-13 08:45:00,55.3,55.3,30.07,SE,128,0.0,2.0,100,0.00,,,0.00,VWS V14.01,2013-01-13 13:45:00,
2013-01-13 08:50:00,55.4,55.4,30.07,SE,128,0.0,2.0,100,0.00,,,0.00,VWS V14.01,2013-01-13 13:50:00,
2013-01-13 08:55:00,55.6,55.3,30.08,SE,128,0.0,2.0,99,0.00,,,0.00,VWS V14.01,2013-01-13 13:55:00,
2013-01-13 09:00:00,55.9,55.9,30.08,SE,128,0.0,0.0,100,0.00,,,0.00,VWS V14.01,2013-01-13 14:00:00,
2013-01-13 09:05:00,56.2,56.2,30.08,SE,128,1.0,1.0,100,0.00,,,0.00,VWS V14.01,2013-01-13 14:05:00,
2013-01-13 09:10:00,56.4,56.4,30.08,West,261,1.0,2.0,100,0.00,,,0.00,VWS V14.01,2013-01-13 14:10:00,
2013-01-13 09:15:00,56.6,56.6,30.08,West,260,2.0,2.0,100,0.00,,,0.00,VWS V14.01,2013-01-13 14:15:00,
2013-01-13 09:20:00,56.7,56.7,30.08,West,260,0.0,2.0,100,0.00,,,0.00,VWS V14.01,2013-01-13 14:20:00,
2013-01-13 09:25:00,56.8,56.8,30.08,West,259,0.0,2.0,100,0.00,,,0.00,VWS V14.01,2013-01-13 14:25:00,
2013-01-13 09:30:00,57.0,57.0,30.09,WSW,244,0.0,0.0,100,0.00,,,0.00,VWS V14.01,2013-01-13 14:30:00,
2013-01-13 09:35:00,57.1,57.1,30.09,West,266,0.0,2.0,100,0.00,,,0.00,VWS V14.01,2013-01-13 14:35:00,
2013-01-13 09:40:00,57.3,57.3,30.09,WSW,242,1.0,3.0,100,0.00,,,0.00,VWS V14.01,2013-01-13 14:40:00,
2013-01-13 09:45:00,57.4,57.4,30.09,WSW,237,0.0,4.0,100,0.00,,,0.00,VWS V14.01,2013-01-13 14:45:00,
2013-01-13 09:50:00,57.6,57.6,30.09,SW,223,3.0,4.0,100,0.00,,,0.00,VWS V14.01,2013-01-13 14:50:00,
2013-01-13 09:55:00,57.8,57.8,30.09,South,186,3.0,5.0,100,0.00,,,0.00,VWS V14.01,2013-01-13 14:55:00,
2013-01-13 10:00:00,58.0,58.0,30.09,South,169,0.0,2.0,100,0.00,,,0.00,VWS V14.01,2013-01-13 15:00:00,
2013-01-13 10:05:00,58.1,58.1,30.09,SSW,207,0.0,3.0,100,0.00,,,0.00,VWS V14.01,2013-01-13 15:05:00,
2013-01-13 10:10:00,58.2,58.2,30.09,South,185,0.0,3.0,100,0.00,,,0.00,VWS V14.01,2013-01-13 15:10:00,
2013-01-13 10:15:00,58.3,58.3,30.09,SSE,162,1.0,4.0,100,0.00,,,0.00,VWS V14.01,2013-01-13 15:15:00,
2013-01-13 10:20:00,58.4,58.4,30.08,South,173,3.0,6.0,100,0.00,,,0.00,VWS V14.01,2013-01-13 15:20:00,
2013-01-13 10:25:00,58.7,58.7,30.09,SSW,198,3.0,6.0,100,0.00,,,0.00,VWS V14.01,2013-01-13 15:25:00,
2013-01-13 10:30:00,59.0,59.0,30.08,SSW,205,4.0,5.0,100,0.00,,,0.00,VWS V14.01,2013-01-13 15:30:00,
2013-01-13 10:35:00,59.3,59.3,30.08,SW,216,3.0,6.0,100,0.00,,,0.00,VWS V14.01,2013-01-13 15:35:00,
2013-01-13 10:40:00,59.7,59.7,30.08,South,184,3.0,6.0,100,0.00,,,0.00,VWS V14.01,2013-01-13 15:40:00,
2013-01-13 10:45:00,60.0,60.0,30.08,SSW,198,6.0,6.0,100,0.00,,,0.00,VWS V14.01,2013-01-13 15:45:00,
2013-01-13 10:50:00,60.4,60.4,30.08,SW,218,8.0,9.0,100,0.00,,,0.00,VWS V14.01,2013-01-13 15:50:00,
2013-01-13 10:55:00,60.6,60.6,30.08,South,175,2.0,9.0,100,0.00,,,0.00,VWS V14.01,2013-01-13 15:55:00,
2013-01-13 11:00:00,60.8,60.8,30.07,SSW,204,4.0,7.0,100,0.00,,CLR,0.00,VWS V14.01,2013-01-13 16:00:00,
2013-01-13 11:05:00,61.2,61.2,30.07,WSW,256,4.0,7.0,100,0.00,,CLR,0.00,VWS V14.01,2013-01-13 16:05:00,
2013-01-13 11:10:00,61.6,61.6,30.07,SW,224,4.0,7.0,100,0.00,,CLR,0.00,VWS V14.01,2013-01-13 16:10:00,
2013-01-13 11:15:00,62.0,61.7,30.07,SW,230,3.0,7.0,99,0.00,,CLR,0.00,VWS V14.01,2013-01-13 16:15:00,
2013-01-13 11:20:00,62.7,61.8,30.07,SW,219,2.0,7.0,97,0.00,,CLR,0.00,VWS V14.01,2013-01-13 16:20:00,
2013-01-13 11:25:00,63.5,62.3,30.06,SW,231,3.0,8.0,96,0.00,,CLR,0.00,VWS V14.01,2013-01-13 16:25:00,
2013-01-13 11:30:00,63.8,61.7,30.06,SW,225,7.0,9.0,93,0.00,,CLR,0.00,VWS V14.01,2013-01-13 16:30:00,
2013-01-13 11:35:00,63.9,61.5,30.06,WSW,238,5.0,9.0,92,0.00,,CLR,0.00,VWS V14.01,2013-01-13 16:35:00,
2013-01-13 11:40:00,64.1,61.4,30.05,SSE,163,3.0,9.0,91,0.00,,CLR,0.00,VWS V14.01,2013-01-13 16:40:00,
2013-01-13 11:45:00,64.3,61.6,30.05,SSW,200,6.0,9.0,91,0.00,,CLR,0.00,VWS V14.01,2013-01-13 16:45:00,
2013-01-13 11:50:00,64.5,61.2,30.05,SSW,209,6.0,9.0,89,0.00,,CLR,0.00,VWS V14.01,2013-01-13 16:50:00,
2013-01-13 11:55:00,64.8,61.8,30.05,SW,220,5.0,11.0,90,0.00,,CLR,0.00,VWS V14.01,2013-01-13 16:55:00,
2013-01-13 12:00:00,65.4,61.8,30.04,SW,224,5.0,9.0,88,0.00,,CLR,0.00,VWS V14.01,2013-01-13 17:00:00,
2013-01-13 12:05:00,65.8,61.8,30.04,SSE,163,4.0,9.0,87,0.00,,CLR,0.00,VWS V14.01,2013-01-13 17:05:00,
2013-01-13 12:10:00,66.1,62.1,30.03,SSW,209,7.0,9.0,87,0.00,,CLR,0.00,VWS V14.01,2013-01-13 17:10:00,
2013-01-13 12:15:00,66.4,62.1,30.03,SSW,196,9.0,10.0,86,0.00,,CLR,0.00,VWS V14.01,2013-01-13 17:15:00,
2013-01-13 12:20:00,67.0,62.7,30.03,SW,227,5.0,10.0,86,0.00,,CLR,0.00,VWS V14.01,2013-01-13 17:20:00,
2013-01-13 12:25:00,67.5,62.2,30.03,WSW,237,9.0,11.0,83,0.00,,CLR,0.00,VWS V14.01,2013-01-13 17:25:00,
2013-01-13 12:30:00,67.3,62.0,30.02,South,181,5.0,7.0,83,0.00,,CLR,0.00,VWS V14.01,2013-01-13 17:30:00,
2013-01-13 12:35:00,67.3,62.0,30.02,South,188,6.0,11.0,83,0.00,,CLR,0.00,VWS V14.01,2013-01-13 17:35:00,
2013-01-13 12:40:00,67.3,61.6,30.02,SW,221,8.0,11.0,82,0.00,,CLR,0.00,VWS V14.01,2013-01-13 17:40:00,
2013-01-13 12:45:00,67.3,62.0,30.02,SSW,207,6.0,11.0,83,0.00,,CLR,0.00,VWS V14.01,2013-01-13 17:45:00,
2013-01-13 12:50:00,67.8,62.8,30.01,SSW,192,4.0,11.0,84,0.00,,CLR,0.00,VWS V14.01,2013-01-13 17:50:00,
2013-01-13 12:55:00,68.3,62.2,30.01,SW,227,6.0,11.0,81,0.00,,CLR,0.00,VWS V14.01,2013-01-13 17:55:00,
2013-01-13 13:00:00,68.2,62.5,30.01,SW,223,5.0,9.0,82,0.00,,CLR,0.00,VWS V14.01,2013-01-13 18:00:00,
2013-01-13 13:05:00,68.2,62.5,30.01,SW,217,2.0,9.0,82,0.00,,CLR,0.00,VWS V14.01,2013-01-13 18:05:00,
2013-01-13 13:10:00,68.7,63.0,30.01,SSW,210,4.0,9.0,82,0.00,,CLR,0.00,VWS V14.01,2013-01-13 18:10:00,
2013-01-13 13:15:00,69.5,62.7,30.01,SSW,202,1.0,10.0,79,0.00,,CLR,0.00,VWS V14.01,2013-01-13 18:15:00,
2013-01-13 13:20:00,70.1,62.9,30.01,SSW,210,7.0,10.0,78,0.00,,CLR,0.00,VWS V14.01,2013-01-13 18:20:00,
2013-01-13 13:25:00,70.4,62.8,30.00,SSE,153,5.0,10.0,77,0.00,,CLR,0.00,VWS V14.01,2013-01-13 18:25:00,
2013-01-13 13:30:00,70.3,62.8,30.00,SSE,155,4.0,5.0,77,0.00,,CLR,0.00,VWS V14.01,2013-01-13 18:30:00,
2013-01-13 13:35:00,70.3,62.8,30.00,SSE,155,4.0,9.0,77,0.00,,CLR,0.00,VWS V14.01,2013-01-13 18:35:00,
2013-01-13 13:40:00,70.3,62.8,30.00,WSW,239,13.0,13.0,77,0.00,,CLR,0.00,VWS V14.01,2013-01-13 18:40:00,
2013-01-13 13:45:00,70.4,62.5,30.00,SSW,199,8.0,13.0,76,0.00,,CLR,0.00,VWS V14.01,2013-01-13 18:45:00,
2013-01-13 13:50:00,70.9,63.0,29.99,SSW,207,7.0,13.0,76,0.00,,CLR,0.00,VWS V14.01,2013-01-13 18:50:00,
2013-01-13 13:55:00,70.9,62.6,29.99,WSW,249,6.0,13.0,75,0.00,,CLR,0.00,VWS V14.01,2013-01-13 18:55:00,
2013-01-13 14:00:00,71.2,62.9,29.99,SSW,201,5.0,7.0,75,0.00,,BKN030,0.00,VWS V14.01,2013-01-13 19:00:00,
2013-01-13 14:05:00,71.6,62.5,29.99,WSW,242,6.0,9.0,73,0.00,,BKN030,0.00,VWS V14.01,2013-01-13 19:05:00,
2013-01-13 14:10:00,72.2,62.7,29.99,SSE,163,6.0,10.0,72,0.00,,BKN030,0.00,VWS V14.01,2013-01-13 19:10:00,
2013-01-13 14:15:00,72.5,62.2,29.99,SW,235,8.0,12.0,70,0.00,,BKN030,0.00,VWS V14.01,2013-01-13 19:15:00,
2013-01-13 14:20:00,72.6,61.9,29.99,SW,226,6.0,12.0,69,0.00,,BKN030,0.00,VWS V14.01,2013-01-13 19:20:00,
2013-01-13 14:25:00,72.6,61.9,29.99,SW,215,6.0,12.0,69,0.00,,BKN030,0.00,VWS V14.01,2013-01-13 19:25:00,
2013-01-13 14:30:00,72.6,61.9,29.99,SSW,212,7.0,13.0,69,0.00,,BKN030,0.00,VWS V14.01,2013-01-13 19:30:00,
2013-01-13 14:35:00,72.5,62.2,29.99,South,180,9.0,13.0,70,0.00,,BKN030,0.00,VWS V14.01,2013-01-13 19:35:00,
2013-01-13 14:40:00,72.2,61.1,29.99,SSE,154,12.0,17.0,68,0.00,,BKN030,0.00,VWS V14.01,2013-01-13 19:40:00,
2013-01-13 14:45:00,72.0,60.9,29.99,South,182,5.0,19.0,68,0.00,,BKN030,0.00,VWS V14.01,2013-01-13 19:45:00,
2013-01-13 14:50:00,72.2,61.1,29.99,South,191,11.0,19.0,68,0.00,,BKN030,0.00,VWS V14.01,2013-01-13 19:50:00,
2013-01-13 14:55:00,72.4,61.2,29.99,SW,216,10.0,19.0,68,0.00,,BKN030,0.00,VWS V14.01,2013-01-13 19:55:00,
2013-01-13 15:00:00,72.3,61.2,29.99,SW,231,10.0,14.0,68,0.00,,SCT047,0.00,VWS V14.01,2013-01-13 20:00:00,
2013-01-13 15:05:00,72.1,61.4,29.99,West,261,11.0,15.0,69,0.01,,SCT047,0.01,VWS V14.01,2013-01-13 20:05:00,
2013-01-13 15:10:00,72.1,61.4,29.99,SSW,211,6.0,16.0,69,0.01,,SCT047,0.01,VWS V14.01,2013-01-13 20:10:00,
2013-01-13 15:15:00,72.1,61.4,30.00,SW,217,5.0,20.0,69,0.01,,SCT047,0.01,VWS V14.01,2013-01-13 20:15:00,
2013-01-13 15:20:00,71.9,61.2,30.00,SSW,210,7.0,20.0,69,0.01,,SCT047,0.01,VWS V14.01,2013-01-13 20:20:00,
2013-01-13 15:25:00,71.7,61.4,30.00,SW,218,12.0,20.0,70,0.01,,SCT047,0.01,VWS V14.01,2013-01-13 20:25:00,
2013-01-13 15:30:00,71.6,61.3,30.00,South,170,12.0,13.0,70,0.01,,SCT047,0.01,VWS V14.01,2013-01-13 20:30:00,
2013-01-13 15:35:00,71.6,61.3,30.00,SSW,212,9.0,13.0,70,0.01,,SCT047,0.01,VWS V14.01,2013-01-13 20:35:00,
2013-01-13 15:40:00,71.7,61.8,30.00,WSW,238,7.0,13.0,71,0.01,,SCT047,0.01,VWS V14.01,2013-01-13 20:40:00,
2013-01-13 15:45:00,71.3,61.0,30.00,SSW,200,4.0,16.0,70,0.01,,SCT047,0.01,VWS V14.01,2013-01-13 20:45:00,
2013-01-13 15:50:00,70.9,61.0,30.01,SW,223,8.0,16.0,71,0.01,,SCT047,0.01,VWS V14.01,2013-01-13 20:50:00,
2013-01-13 15:55:00,70.7,61.2,30.00,WSW,238,9.0,16.0,72,0.01,,SCT047,0.01,VWS V14.01,2013-01-13 20:55:00,
2013-01-13 16:00:00,70.6,61.1,30.01,SW,236,5.0,6.0,72,0.01,,SCT041,0.01,VWS V14.01,2013-01-13 21:00:00,
2013-01-13 16:05:00,70.6,61.1,30.01,South,186,4.0,7.0,72,0.01,,SCT041,0.01,VWS V14.01,2013-01-13 21:05:00,
2013-01-13 16:10:00,70.7,60.8,30.01,South,169,11.0,11.0,71,0.01,,SCT041,0.01,VWS V14.01,2013-01-13 21:10:00,
2013-01-13 16:15:00,70.7,60.8,30.01,SW,220,12.0,12.0,71,0.01,,SCT041,0.01,VWS V14.01,2013-01-13 21:15:00,
2013-01-13 16:20:00,70.6,60.3,30.01,SW,221,14.0,19.0,70,0.01,,SCT041,0.01,VWS V14.01,2013-01-13 21:20:00,
2013-01-13 16:25:00,70.7,60.5,30.01,SW,227,11.0,19.0,70,0.01,,SCT041,0.01,VWS V14.01,2013-01-13 21:25:00,
2013-01-13 16:30:00,70.5,60.3,30.02,SSW,211,10.0,15.0,70,0.00,,SCT041,0.01,VWS V14.01,2013-01-13 21:30:00,
2013-01-13 16:35:00,70.2,60.4,30.02,SSW,209,7.0,15.0,71,0.00,,SCT041,0.01,VWS V14.01,2013-01-13 21:35:00,
2013-01-13 16:40:00,70.2,60.4,30.02,SW,229,8.0,15.0,71,0.00,,SCT041,0.01,VWS V14.01,2013-01-13 21:40:00,
2013-01-13 16:45:00,70.3,60.5,30.02,SSW,193,8.0,15.0,71,0.00,,SCT041,0.01,VWS V14.01,2013-01-13 21:45:00,
2013-01-13 16:50:00,70.2,60.4,30.02,South,181,3.0,15.0,71,0.00,,SCT041,0.01,VWS V14.01,2013-01-13 21:50:00,
2013-01-13 16:55:00,69.9,60.5,30.02,SW,219,7.0,15.0,72,0.00,,SCT041,0.01,VWS V14.01,2013-01-13 21:55:00,
2013-01-13 17:00:00,69.7,60.3,30.02,SSW,206,4.0,5.0,72,0.00,,CLR,0.01,VWS V14.01,2013-01-13 22:00:00,
2013-01-13 17:05:00,69.5,60.5,30.01,South,189,2.0,7.0,73,0.00,,CLR,0.01,VWS V14.01,2013-01-13 22:05:00,
2013-01-13 17:10:00,69.2,60.2,30.02,SSW,209,4.0,7.0,73,0.00,,CLR,0.01,VWS V14.01,2013-01-13 22:10:00,
2013-01-13 17:15:00,68.9,60.3,30.01,SSW,198,5.0,7.0,74,0.00,,CLR,0.01,VWS V14.01,2013-01-13 22:15:00,
2013-01-13 17:20:00,68.8,60.6,30.01,South,191,4.0,7.0,75,0.00,,CLR,0.01,VWS V14.01,2013-01-13 22:20:00,
2013-01-13 17:25:00,68.5,60.3,30.01,SSW,195,2.0,7.0,75,0.00,,CLR,0.01,VWS V14.01,2013-01-13 22:25:00,
2013-01-13 17:30:00,68.3,60.5,30.01,SSE,161,3.0,5.0,76,0.00,,CLR,0.01,VWS V14.01,2013-01-13 22:30:00,
2013-01-13 17:36:00,68.1,60.3,30.01,SSW,208,3.0,6.0,76,0.00,,CLR,0.01,VWS V14.01,2013-01-13 22:36:00,
2013-01-13 17:41:00,67.9,60.4,30.01,SSE,163,3.0,6.0,77,0.00,,CLR,0.01,VWS V14.01,2013-01-13 22:41:00,
2013-01-13 17:46:00,67.9,60.4,30.01,South,189,2.0,6.0,77,0.00,,CLR,0.01,VWS V14.01,2013-01-13 22:46:00,
2013-01-13 17:51:00,67.7,60.2,30.01,South,185,0.0,6.0,77,0.00,,CLR,0.01,VWS V14.01,2013-01-13 22:51:00,
2013-01-13 17:56:00,67.5,60.4,30.02,SSE,154,2.0,6.0,78,0.00,,CLR,0.01,VWS V14.01,2013-01-13 22:56:00,
2013-01-13 18:00:00,67.5,60.4,30.01,SSE,167,6.0,7.0,78,0.00,,CLR,0.01,VWS V14.01,2013-01-13 23:00:00,
2013-01-13 18:01:00,67.5,60.4,30.01,SSE,165,3.0,7.0,78,0.00,,FEW045,0.01,VWS V14.01,2013-01-13 23:01:00,
2013-01-13 18:06:00,67.4,60.3,30.01,SW,217,4.0,7.0,78,0.00,,FEW045,0.01,VWS V14.01,2013-01-13 23:06:00,
2013-01-13 18:11:00,67.2,60.1,30.02,SSW,196,4.0,7.0,78,0.00,,FEW045,0.01,VWS V14.01,2013-01-13 23:11:00,
2013-01-13 18:16:00,67.0,60.3,30.02,South,180,3.0,7.0,79,0.00,,FEW045,0.01,VWS V14.01,2013-01-13 23:16:00,
2013-01-13 18:21:00,66.9,60.2,30.02,SW,215,4.0,8.0,79,0.00,,FEW045,0.01,VWS V14.01,2013-01-13 23:21:00,
2013-01-13 18:26:00,66.7,60.0,30.02,SSW,201,3.0,8.0,79,0.00,,FEW045,0.01,VWS V14.01,2013-01-13 23:26:00,
2013-01-13 18:30:00,66.7,60.0,30.02,SSW,193,3.0,8.0,79,0.00,,CLR,0.01,VWS V14.01,2013-01-13 23:30:00,
2013-01-13 18:31:00,66.6,59.9,30.02,SSW,212,3.0,7.0,79,0.00,,FEW045,0.01,VWS V14.01,2013-01-13 23:31:00,
2013-01-13 18:36:00,66.7,60.0,30.02,South,189,6.0,11.0,79,0.00,,FEW045,0.01,VWS V14.01,2013-01-13 23:36:00,
2013-01-13 18:41:00,66.8,60.1,30.02,SW,222,9.0,15.0,79,0.00,,FEW045,0.01,VWS V14.01,2013-01-13 23:41:00,
2013-01-13 18:46:00,66.9,60.2,30.02,SW,217,7.0,15.0,79,0.00,,FEW045,0.01,VWS V14.01,2013-01-13 23:46:00,
2013-01-13 18:51:00,67.0,60.3,30.01,South,173,3.0,15.0,79,0.00,,FEW045,0.01,VWS V14.01,2013-01-13 23:51:00,
2013-01-13 18:56:00,67.0,60.3,30.01,SSE,167,7.0,15.0,79,0.00,,FEW045,0.01,VWS V14.01,2013-01-13 23:56:00,
2013-01-13 19:00:00,67.0,59.9,30.01,South,189,9.0,15.0,78,0.00,,CLR,0.01,VWS V14.01,2013-01-14 00:00:00,
2013-01-13 19:01:00,67.0,59.9,30.01,SSW,200,4.0,9.0,78,0.00,,CLR,0.01,VWS V14.01,2013-01-14 00:01:00,
2013-01-13 19:06:00,66.9,60.2,30.01,South,188,5.0,9.0,79,0.00,,CLR,0.01,VWS V14.01,2013-01-14 00:06:00,
2013-01-13 19:11:00,66.8,60.1,30.00,South,175,3.0,9.0,79,0.00,,CLR,0.01,VWS V14.01,2013-01-14 00:11:00,
2013-01-13 19:16:00,66.5,60.2,30.00,SSW,205,6.0,10.0,80,0.00,,CLR,0.01,VWS V14.01,2013-01-14 00:16:00,
2013-01-13 19:21:00,66.2,59.9,30.00,SSW,209,4.0,10.0,80,0.00,,CLR,0.01,VWS V14.01,2013-01-14 00:21:00,
2013-01-13 19:26:00,66.0,60.0,30.00,South,189,7.0,10.0,81,0.00,,CLR,0.01,VWS V14.01,2013-01-14 00:26:00,
2013-01-13 19:30:00,66.0,60.0,30.00,South,183,8.0,10.0,81,0.00,,CLR,0.01,VWS V14.01,2013-01-14 00:30:00,
2013-01-13 19:31:00,66.0,60.0,30.00,SSW,202,7.0,8.0,81,0.00,,CLR,0.01,VWS V14.01,2013-01-14 00:31:00,
2013-01-13 19:36:00,65.8,59.8,30.01,SSE,159,7.0,10.0,81,0.00,,CLR,0.01,VWS V14.01,2013-01-14 00:36:00,
2013-01-13 19:41:00,65.8,60.2,30.00,SSW,193,7.0,10.0,82,0.00,,CLR,0.01,VWS V14.01,2013-01-14 00:41:00,
2013-01-13 19:46:00,65.8,59.8,30.00,SSW,207,6.0,10.0,81,0.00,,CLR,0.01,VWS V14.01,2013-01-14 00:46:00,
2013-01-13 19:51:00,65.7,60.1,30.00,South,191,7.0,11.0,82,0.00,,CLR,0.01,VWS V14.01,2013-01-14 00:51:00,
2013-01-13 19:56:00,65.7,60.1,30.00,South,169,3.0,11.0,82,0.00,,CLR,0.01,VWS V14.01,2013-01-14 00:56:00,
2013-01-13 20:00:00,65.6,60.0,30.00,South,182,5.0,11.0,82,0.00,,CLR,0.01,VWS V14.01,2013-01-14 01:00:00,
2013-01-13 20:01:00,65.6,60.0,30.00,SSW,192,4.0,5.0,82,0.00,,FEW047,0.01,VWS V14.01,2013-01-14 01:01:00,
2013-01-13 20:06:00,65.4,59.8,30.00,SSW,198,8.0,8.0,82,0.00,,FEW047,0.01,VWS V14.01,2013-01-14 01:06:00,
2013-01-13 20:11:00,65.2,59.9,30.00,South,178,2.0,8.0,83,0.00,,FEW047,0.01,VWS V14.01,2013-01-14 01:11:00,
2013-01-13 20:16:00,65.0,59.7,30.00,SW,223,4.0,8.0,83,0.00,,FEW047,0.01,VWS V14.01,2013-01-14 01:16:00,
2013-01-13 20:21:00,64.8,59.5,30.00,SW,217,9.0,9.0,83,0.00,,FEW047,0.01,VWS V14.01,2013-01-14 01:21:00,
2013-01-13 20:26:00,64.7,59.4,30.00,SSW,197,2.0,9.0,83,0.00,,FEW047,0.01,VWS V14.01,2013-01-14 01:26:00,
2013-01-13 20:30:00,64.7,59.8,30.00,SW,219,7.0,9.0,84,0.00,,CLR,0.01,VWS V14.01,2013-01-14 01:30:00,
2013-01-13 20:31:00,64.7,59.8,30.00,SSW,210,4.0,7.0,84,0.00,,FEW047,0.01,VWS V14.01,2013-01-14 01:31:00,
2013-01-13 20:36:00,64.6,59.7,30.00,SW,232,2.0,7.0,84,0.00,,FEW047,0.01,VWS V14.01,2013-01-14 01:36:00,
2013-01-13 20:41:00,64.5,59.6,30.01,SSW,212,2.0,7.0,84,0.00,,FEW047,0.01,VWS V14.01,2013-01-14 01:41:00,
2013-01-13 20:46:00,64.4,59.5,30.00,SSW,200,3.0,7.0,84,0.00,,FEW047,0.01,VWS V14.01,2013-01-14 01:46:00,
2013-01-13 20:51:00,64.3,59.7,30.00,SSW,197,6.0,7.0,85,0.00,,FEW047,0.01,VWS V14.01,2013-01-14 01:51:00,
2013-01-13 20:56:00,64.3,59.7,30.00,SSW,198,6.0,7.0,85,0.00,,FEW047,0.01,VWS V14.01,2013-01-14 01:56:00,
2013-01-13 21:00:00,64.3,59.7,30.00,SW,217,4.0,7.0,85,0.00,,CLR,0.01,VWS V14.01,2013-01-14 02:00:00,
2013-01-13 21:01:00,64.3,59.7,30.00,SSW,213,5.0,9.0,85,0.00,,CLR,0.01,VWS V14.01,2013-01-14 02:01:00,
2013-01-13 21:06:00,64.3,59.4,30.00,SW,217,4.0,9.0,84,0.00,,CLR,0.01,VWS V14.01,2013-01-14 02:06:00,
2013-01-13 21:11:00,64.2,59.6,30.00,SW,217,4.0,9.0,85,0.00,,CLR,0.01,VWS V14.01,2013-01-14 02:11:00,
2013-01-13 21:16:00,64.0,59.4,30.00,SW,226,4.0,9.0,85,0.00,,CLR,0.01,VWS V14.01,2013-01-14 02:16:00,
2013-01-13 21:21:00,63.7,59.1,30.00,WSW,255,2.0,9.0,85,0.00,,CLR,0.01,VWS V14.01,2013-01-14 02:21:00,
2013-01-13 21:26:00,63.4,59.2,30.00,SW,227,5.0,9.0,86,0.00,,CLR,0.01,VWS V14.01,2013-01-14 02:26:00,
2013-01-13 21:30:00,63.3,59.0,30.00,SW,223,5.0,9.0,86,0.00,,CLR,0.01,VWS V14.01,2013-01-14 02:30:00,
2013-01-13 21:31:00,63.2,59.0,30.00,SSW,195,4.0,7.0,86,0.00,,CLR,0.01,VWS V14.01,2013-01-14 02:31:00,
2013-01-13 21:36:00,63.1,59.2,30.00,SSW,212,5.0,8.0,87,0.00,,CLR,0.01,VWS V14.01,2013-01-14 02:36:00,
2013-01-13 21:41:00,63.2,59.3,30.00,SW,219,6.0,9.0,87,0.00,,CLR,0.01,VWS V14.01,2013-01-14 02:41:00,
2013-01-13 21:46:00,63.2,59.0,30.00,SW,221,6.0,9.0,86,0.00,,CLR,0.01,VWS V14.01,2013-01-14 02:46:00,
2013-01-13 21:51:00,63.3,59.0,30.00,SW,218,4.0,12.0,86,0.00,,CLR,0.01,VWS V14.01,2013-01-14 02:51:00,
2013-01-13 21:56:00,63.3,59.0,30.00,South,190,7.0,12.0,86,0.00,,CLR,0.01,VWS V14.01,2013-01-14 02:56:00,
2013-01-13 22:00:00,63.4,59.5,30.00,South,191,7.0,12.0,87,0.00,,CLR,0.01,VWS V14.01,2013-01-14 03:00:00,
2013-01-13 22:01:00,63.5,59.2,30.00,SSW,213,7.0,10.0,86,0.00,,CLR,0.01,VWS V14.01,2013-01-14 03:01:00,
2013-01-13 22:06:00,63.6,59.3,30.00,South,177,7.0,12.0,86,0.00,,CLR,0.01,VWS V14.01,2013-01-14 03:06:00,
2013-01-13 22:11:00,63.6,59.3,30.00,SW,223,6.0,12.0,86,0.00,,CLR,0.01,VWS V14.01,2013-01-14 03:11:00,
2013-01-13 22:16:00,63.6,59.3,30.00,South,184,7.0,12.0,86,0.00,,CLR,0.01,VWS V14.01,2013-01-14 03:16:00,
2013-01-13 22:21:00,63.6,59.3,30.00,SSW,202,7.0,14.0,86,0.00,,CLR,0.01,VWS V14.01,2013-01-14 03:21:00,
2013-01-13 22:26:00,63.6,59.3,30.00,SW,221,6.0,14.0,86,0.00,,CLR,0.01,VWS V14.01,2013-01-14 03:26:00,
2013-01-13 22:30:00,63.6,59.3,30.00,SSW,201,6.0,14.0,86,0.00,,CLR,0.01,VWS V14.01,2013-01-14 03:30:00,
2013-01-13 22:31:00,63.6,59.3,30.00,South,181,5.0,9.0,86,0.00,,CLR,0.01,VWS V14.01,2013-01-14 03:31:00,
2013-01-13 22:36:00,63.5,59.6,30.00,SSW,211,4.0,10.0,87,0.00,,CLR,0.01,VWS V14.01,2013-01-14 03:36:00,
2013-01-13 22:41:00,63.5,59.6,30.00,SSW,207,4.0,10.0,87,0.00,,CLR,0.01,VWS V14.01,2013-01-14 03:41:00,
2013-01-13 22:46:00,63.5,59.6,30.01,South,171,7.0,10.0,87,0.00,,CLR,0.01,VWS V14.01,2013-01-14 03:46:00,
2013-01-13 22:51:00,63.3,59.4,30.00,South,190,8.0,10.0,87,0.00,,CLR,0.01,VWS V14.01,2013-01-14 03:51:00,
2013-01-13 22:56:00,63.2,59.3,30.00,SSW,207,7.0,10.0,87,0.00,,CLR,0.01,VWS V14.01,2013-01-14 03:56:00,
2013-01-13 23:00:00,63.1,59.5,30.00,South,171,3.0,10.0,88,0.00,,CLR,0.01,VWS V14.01,2013-01-14 04:00:00,
2013-01-13 23:01:00,63.0,59.4,30.00,South,175,4.0,11.0,88,0.00,,CLR,0.01,VWS V14.01,2013-01-14 04:01:00,
2013-01-13 23:06:00,63.0,59.4,30.00,South,178,7.0,11.0,88,0.00,,CLR,0.01,VWS V14.01,2013-01-14 04:06:00,
2013-01-13 23:11:00,63.0,59.4,30.00,SSW,193,4.0,11.0,88,0.00,,CLR,0.01,VWS V14.01,2013-01-14 04:11:00,
2013-01-13 23:16:00,62.9,59.3,30.00,South,183,2.0,11.0,88,0.00,,CLR,0.01,VWS V14.01,2013-01-14 04:16:00,
2013-01-13 23:21:00,62.9,59.3,30.00,South,170,5.0,11.0,88,0.00,,CLR,0.01,VWS V14.01,2013-01-14 04:21:00,
2013-01-13 23:26:00,62.8,59.2,30.01,West,259,1.0,11.0,88,0.00,,CLR,0.01,VWS V14.01,2013-01-14 04:26:00,
2013-01-13 23:30:00,62.7,59.1,30.01,WSW,256,3.0,11.0,88,0.00,,CLR,0.01,VWS V14.01,2013-01-14 04:30:00,
2013-01-13 23:31:00,62.7,59.1,30.01,WSW,253,1.0,5.0,88,0.00,,CLR,0.01,VWS V14.01,2013-01-14 04:31:00,
2013-01-13 23:36:00,62.6,59.3,30.02,WSW,251,0.0,5.0,89,0.00,,CLR,0.01,VWS V14.01,2013-01-14 04:36:00,
2013-01-13 23:41:00,62.5,59.2,30.02,SW,232,3.0,5.0,89,0.00,,CLR,0.01,VWS V14.01,2013-01-14 04:41:00,
2013-01-13 23:46:00,62.6,59.3,30.02,SW,229,2.0,6.0,89,0.00,,CLR,0.01,VWS V14.01,2013-01-14 04:46:00,
2013-01-13 23:51:00,62.6,59.0,30.02,WSW,241,1.0,6.0,88,0.00,,CLR,0.01,VWS V14.01,2013-01-14 04:51:00,
2013-01-13 23:56:00,62.5,59.2,30.02,WSW,246,2.0,6.0,89,0.00,,CLR,0.01,VWS V14.01,2013-01-14 04:56:00,